This is the latest recevied weather packets stored in our database for station/object KC8JWT. If no packets are shown the sender has not sent any weather packets the latest 10 day(s).
| Time | Temp. | Humidity | Pressure | Rain* | Wind** | Luminosity | Snow |
|---|---|---|---|---|---|---|---|
| 1777764587 | 9.44° C | 67% | 1016.3 hPa | 0 mm | - | 46 W/m² | - |
| 1777764283 | 9.44° C | 65% | 1016.4 hPa | 0 mm | - | 55 W/m² | - |
| 1777763980 | 10° C | 64% | 1016.3 hPa | 0 mm | - | 60 W/m² | - |
| 1777763678 | 9.44° C | 62% | 1016.3 hPa | 0 mm | - | 89 W/m² | - |
| 1777763376 | 10° C | 61% | 1016.2 hPa | 0 mm | - | 74 W/m² | - |
| 1777763073 | 10.56° C | 60% | 1016.2 hPa | 0 mm | - | 75 W/m² | - |
| 1777762771 | 10.56° C | 61% | 1016.3 hPa | 0 mm | - | 72 W/m² | - |
| 1777762467 | 10.56° C | 60% | 1016.3 hPa | 0 mm | - | 74 W/m² | - |
| 1777762164 | 10° C | 59% | 1016 hPa | 0 mm | - | 66 W/m² | - |
| 1777761860 | 10.56° C | 58% | 1015.9 hPa | 0 mm | - | 83 W/m² | - |
| 1777761557 | 10.56° C | 59% | 1016.1 hPa | 0 mm | - | 102 W/m² | - |
| 1777761255 | 10.56° C | 56% | 1016 hPa | 0 mm | - | 92 W/m² | - |
| 1777760953 | 10.56° C | 56% | 1016.1 hPa | 0 mm | - | 93 W/m² | - |
| 1777760650 | 11.11° C | 53% | 1015.7 hPa | 0 mm | - | 111 W/m² | - |
| 1777760350 | 11.11° C | 53% | 1015.9 hPa | 0 mm | - | 117 W/m² | - |
| 1777760048 | 11.11° C | 52% | 1015.8 hPa | 0 mm | - | 128 W/m² | - |
| 1777759745 | 11.11° C | 52% | 1015.9 hPa | 0 mm | - | 110 W/m² | - |
| 1777759440 | 11.67° C | 52% | 1015.6 hPa | 0 mm | - | 102 W/m² | - |
| 1777759137 | 12.22° C | 52% | 1015.6 hPa | 0 mm | - | 145 W/m² | - |
| 1777758835 | 12.22° C | 51% | 1015.5 hPa | 0 mm | - | 175 W/m² | - |
| 1777758531 | 12.22° C | 51% | 1015.8 hPa | 0 mm | - | 153 W/m² | - |
| 1777758228 | 12.78° C | 52% | 1015.2 hPa | 0 mm | - | 150 W/m² | - |
| 1777757925 | 14.44° C | 49% | 1015.5 hPa | 0 mm | - | 501 W/m² | - |
| 1777757622 | 13.89° C | 48% | 1015.3 hPa | 0 mm | - | 532 W/m² | - |
| 1777757321 | 13.33° C | 53% | 1015.2 hPa | 0 mm | - | 474 W/m² | - |
* Rain latest hour (hover to see other rain measurements)
** Current wind speed in m/s (hover to see current wind gust speed)